Paxton, Illinois
Current Conditions -  °F | °C
As of 9:50 AM on Friday 21 Nov 2014 (Local Time) from KTIP Reporting Station
Clear Clear  
Wind Chill: 16°   Ceiling: Unl
Heat Index: 26°   Visibility: 10mi
Dew Point:   Wind: 10mph
Humidity: 47%   Direction: 140°SE
Pressure: 30.48"   Gusts: NA
Location:  40.46°N, 88.1°W
Report Text: KTIP 211550Z AUTO 14009KT 10SM CLR M03/M13 A3048 RMK AO2 T10331132
Loading
Personal Weather Stations






























Interactive Weather Map New forecast layout! Learn more

10-Day Weather Forecast

Advertisements
Track Severe Weather on mobile